Main page
METAR-TAF:

METAR-TAF

Airports :

Lydd Airport

Lydd, England

latitude: 50-57N, longitude: 000-56E, elevation: 3 m

Current weather observation

The report was made 16 minutes ago, at 07:20 UTC
Wind 9 kt from the North/Northwest, varying between West/Northwest and North
Temperature 15°C
Humidity 77%
Pressure 1026 hPa
Visibility 10 km or more
Few clouds at a height of 4500 ft

METAR: EGMD 110720Z 33009KT 300V360 9999 FEW045 15/11 Q1026

Time: 08:36 (07:36 UTC)

Forecast

The report was made 5 hours and 35 minutes ago, at 02:01 UTC
Forecast valid from 11 at 03 UTC to 11 at 12 UTC
Wind 9 kt from the Northwest
Visibility 10 km or more
Few clouds at a height of 4500 ft

TAF: EGMD 110201Z 1103/1112 31009KT 9999 FEW045

Weather observations and forecasts of more than 4000 airports (METAR and TAF reports).

The available stations are represented by yellow and red dots on the map.

Hover mouse over dot to see the name of the station.

Then click to see weather observations and forecasts.

To change the map : click on the green buttons with a black cross to zoom in, on the green button with a dash to zoom out, or on the green arrows for adjacent maps.


METAR-TAF: